tititudorancea.com
Station Historical Data
Daily Summary for April 20, 2018 Units:  Metric    English   Both
« Previous Day
Next Day »
Daily Weekly Monthly Yearly Custom
  High: Low: Average:
Temperature: -17.8 °C 6.2 °C 16.2 °C
Dew Point: -17.8 °C 4.7 °C 7.3 °C
Humidity: Humidity % 29 % 61 %
Wind Speed: 0 km/h 0 km/h 1.8 km/h
Wind Gust: 0 km/h - -
Wind:- - SSW
Pressure: 0 hPa 1017.8 hPa -
Precipitation: 0 mm    
Historical Graphs
 
 
Ararat weather Find more about Weather in Ararat, AU


 



 


Tabular Data for April 20, 2018
Time Temperature Dew Point Pressure Wind Wind Speed Wind Gust Humidity Rainfall Rate (Hourly)
-17.8 °C -17.8 °C 0 hPa Calm     Humidity % 0 mm
00:04 9.8 °C 6.6 °C 1018.5 hPa Calm     80 % 0 mm
00:09 9.7 °C 6.6 °C 1018.5 hPa Calm     81 % 0 mm
00:14 9.6 °C 6.5 °C 1018.5 hPa Calm     81 % 0 mm
00:19 9.5 °C 6.6 °C 1018.5 hPa Calm     82 % 0 mm
00:24 9.4 °C 6.4 °C 1018.5 hPa Calm     82 % 0 mm
00:29 9.3 °C 6.6 °C 1018.5 hPa Calm     83 % 0 mm
00:34 9.2 °C 6.4 °C 1018.5 hPa Calm     83 % 0 mm
00:39 9.2 °C 6.6 °C 1018.5 hPa Calm     84 % 0 mm
00:44 9.1 °C 6.6 °C 1018.5 hPa Calm     84 % 0 mm
00:49 8.9 °C 6.3 °C 1018.5 hPa Calm     84 % 0 mm
00:54 8.8 °C 6.4 °C 1018.5 hPa Calm     85 % 0 mm
00:59 8.8 °C 6.4 °C 1018.5 hPa Calm     85 % 0 mm
01:04 8.7 °C 6.3 °C 1018.5 hPa Calm     85 % 0 mm
01:09 8.6 °C 6.2 °C 1018.5 hPa Calm     85 % 0 mm
01:14 8.6 °C 6.3 °C 1018.5 hPa Calm     86 % 0 mm
01:19 8.6 °C 6.3 °C 1018.5 hPa Calm     86 % 0 mm
01:24 8.5 °C 6.3 °C 1018.5 hPa Calm     86 % 0 mm
01:29 8.5 °C 6.4 °C 1018.5 hPa Calm     87 % 0 mm
01:34 8.6 °C 6.5 °C 1018.5 hPa Calm     87 % 0 mm
01:39 8.4 °C 6.2 °C 1018.5 hPa Calm     86 % 0 mm
01:44 8.3 °C 6.1 °C 1018.5 hPa Calm     86 % 0 mm
01:49 8.2 °C 6.2 °C 1018.8 hPa Calm     87 % 0 mm
01:54 8.2 °C 6.2 °C 1018.8 hPa Calm     87 % 0 mm
01:59 8.2 °C 6.3 °C 1018.8 hPa Calm     88 % 0 mm
02:04 8.2 °C 6.3 °C 1018.8 hPa Calm     88 % 0 mm
02:09 8.2 °C 6.3 °C 1018.8 hPa Calm     88 % 0 mm
02:14 8.1 °C 6.2 °C 1018.8 hPa Calm     88 % 0 mm
02:19 8 °C 5.9 °C 1018.8 hPa Calm     87 % 0 mm
02:24 7.9 °C 6 °C 1018.8 hPa Calm     88 % 0 mm
02:29 7.9 °C 6 °C 1018.8 hPa Calm     88 % 0 mm
02:34 7.9 °C 6 °C 1018.8 hPa Calm     88 % 0 mm
02:39 7.9 °C 6.2 °C 1018.8 hPa Calm     89 % 0 mm
02:44 7.9 °C 6.2 °C 1018.8 hPa Calm     89 % 0 mm
02:49 8.1 °C 6.3 °C 1018.8 hPa Calm     89 % 0 mm
02:54 8.1 °C 6.3 °C 1018.8 hPa Calm     89 % 0 mm
02:59 8 °C 6.3 °C 1018.8 hPa Calm     89 % 0 mm
03:04 7.9 °C 6.2 °C 1018.8 hPa Calm     89 % 0 mm
03:09 7.8 °C 5.9 °C 1018.8 hPa Calm     88 % 0 mm
03:14 7.7 °C 5.8 °C 1018.8 hPa Calm     88 % 0 mm
03:19 7.6 °C 5.7 °C 1018.8 hPa Calm     88 % 0 mm
03:24 7.5 °C 5.7 °C 1018.5 hPa Calm     88 % 0 mm
03:29 7.4 °C 5.7 °C 1018.5 hPa Calm     89 % 0 mm
03:34 7.4 °C 5.7 °C 1018.5 hPa Calm     89 % 0 mm
03:39 7.4 °C 5.7 °C 1018.5 hPa Calm     89 % 0 mm
03:44 7.4 °C 5.7 °C 1018.8 hPa Calm     89 % 0 mm
03:49 7.4 °C 5.8 °C 1018.5 hPa Calm     90 % 0 mm
03:54 7.4 °C 5.8 °C 1018.5 hPa Calm     90 % 0 mm
03:59 7.3 °C 5.7 °C 1018.8 hPa Calm     90 % 0 mm
04:04 7.2 °C 5.6 °C 1018.8 hPa Calm     89 % 0 mm
04:09 7.2 °C 5.6 °C 1018.8 hPa Calm     90 % 0 mm
04:14 7.2 °C 5.7 °C 1018.8 hPa Calm     90 % 0 mm
04:19 7.2 °C 5.7 °C 1018.8 hPa Calm     90 % 0 mm
04:24 7.1 °C 5.6 °C 1018.8 hPa Calm     90 % 0 mm
04:29 7.1 °C 5.5 °C 1018.8 hPa Calm     90 % 0 mm
04:34 7 °C 5.4 °C 1019.2 hPa Calm     90 % 0 mm
04:39 6.9 °C 5.4 °C 1019.2 hPa Calm     90 % 0 mm
04:44 6.8 °C 5.3 °C 1019.2 hPa Calm     90 % 0 mm
04:49 6.6 °C 5.1 °C 1019.2 hPa Calm     90 % 0 mm
04:54 6.6 °C 5.1 °C 1019.2 hPa Calm     90 % 0 mm
04:59 6.5 °C 5 °C 1019.2 hPa Calm     90 % 0 mm
05:04 6.5 °C 5 °C 1019.2 hPa Calm     90 % 0 mm
05:09 6.4 °C 4.9 °C 1019.2 hPa Calm     90 % 0 mm
05:14 6.4 °C 4.9 °C 1019.5 hPa Calm     90 % 0 mm
05:19 6.3 °C 4.8 °C 1019.5 hPa Calm     90 % 0 mm
05:24 6.2 °C 4.7 °C 1019.5 hPa Calm     90 % 0 mm
05:29 6.3 °C 4.9 °C 1019.5 hPa Calm     91 % 0 mm
05:34 6.5 °C 5.1 °C 1019.5 hPa Calm     91 % 0 mm
05:39 6.7 °C 5.3 °C 1019.5 hPa Calm     91 % 0 mm
05:44 6.8 °C 5.6 °C 1019.5 hPa Calm     92 % 0 mm
05:49 7 °C 5.8 °C 1019.5 hPa Calm     92 % 0 mm
05:54 7.1 °C 5.7 °C 1019.5 hPa Calm     91 % 0 mm
05:59 7.1 °C 5.9 °C 1019.5 hPa Calm     92 % 0 mm
06:04 7.2 °C 6 °C 1019.5 hPa Calm     92 % 0 mm
06:09 7.2 °C 5.8 °C 1019.5 hPa Calm     91 % 0 mm
06:14 7.3 °C 5.9 °C 1019.5 hPa Calm     91 % 0 mm
06:19 7.3 °C 5.9 °C 1019.9 hPa Calm     91 % 0 mm
06:24 7.2 °C 5.8 °C 1019.9 hPa Calm     91 % 0 mm
06:29 7.1 °C 5.6 °C 1019.9 hPa Calm     90 % 0 mm
06:34 7 °C 5.6 °C 1019.9 hPa Calm     91 % 0 mm
06:39 7 °C 5.6 °C 1019.9 hPa Calm     91 % 0 mm
06:44 6.9 °C 5.6 °C 1019.9 hPa Calm     91 % 0 mm
06:49 6.8 °C 5.3 °C 1020.2 hPa Calm     90 % 0 mm
06:54 6.7 °C 5.2 °C 1020.2 hPa Calm     90 % 0 mm
06:59 6.6 °C 5.2 °C 1020.2 hPa Calm     91 % 0 mm
07:04 6.5 °C 5.1 °C 1020.2 hPa Calm     91 % 0 mm
07:09 6.5 °C 5.1 °C 1020.2 hPa Calm     91 % 0 mm
07:14 6.6 °C 5.2 °C 1020.2 hPa Calm     91 % 0 mm
07:19 6.6 °C 5.2 °C 1020.2 hPa Calm     91 % 0 mm
07:24 6.5 °C 5.1 °C 1020.2 hPa Calm     91 % 0 mm
07:29 6.5 °C 5.1 °C 1020.2 hPa Calm     91 % 0 mm
07:34 6.6 °C 5.3 °C 1020.5 hPa Calm     92 % 0 mm
07:39 6.7 °C 5.5 °C 1020.5 hPa Calm     92 % 0 mm
07:44 6.9 °C 5.7 °C 1020.5 hPa Calm     92 % 0 mm
07:49 7.3 °C 6.1 °C 1020.5 hPa Calm     92 % 0 mm
07:54 7.8 °C 6.7 °C 1020.5 hPa Calm     93 % 0 mm
07:59 8.1 °C 7.1 °C 1020.9 hPa Calm     93 % 0 mm
08:04 8.9 °C 8.1 °C 1020.9 hPa Calm     94 % 0 mm
08:09 9.7 °C 8.7 °C 1020.9 hPa Calm     93 % 0 mm
08:14 10.5 °C 9.3 °C 1020.9 hPa Calm     92 % 0 mm
08:19 11.2 °C 9.6 °C 1020.9 hPa Calm     90 % 0 mm
08:24 11.9 °C 10.2 °C 1020.9 hPa Calm     89 % 0 mm
08:29 12.7 °C 10.4 °C 1020.9 hPa Calm     86 % 0 mm
08:34 13.4 °C 10.6 °C 1020.9 hPa Calm     83 % 0 mm
08:39 14 °C 10.4 °C 1020.9 hPa Calm     79 % 0 mm
08:44 14.4 °C 10.1 °C 1020.9 hPa Calm     75 % 0 mm
08:49 14.6 °C 9.6 °C 1020.9 hPa Calm     72 % 0 mm
08:54 14.6 °C 9.3 °C 1021.2 hPa Calm     71 % 0 mm
08:59 14.9 °C 9.9 °C 1021.2 hPa Calm     72 % 0 mm
09:04 15.5 °C 9.4 °C 1021.2 hPa Calm     67 % 0 mm
09:09 15.8 °C 9.7 °C 1021.2 hPa Calm     67 % 0 mm
09:14 16.6 °C 10 °C 1021.2 hPa Calm     65 % 0 mm
09:19 17.7 °C 10.6 °C 1021.2 hPa WSW 0.3 km/h 1.9 km/h 63 % 0 mm
09:24 18.3 °C 9.9 °C 1021.2 hPa Calm   1.9 km/h 58 % 0 mm
09:29 18.9 °C 10.9 °C 1020.9 hPa WSW 2.1 km/h 3.7 km/h 60 % 0 mm
09:34 19.1 °C 10.7 °C 1020.9 hPa Calm     58 % 0 mm
09:39 19.3 °C 10.8 °C 1020.9 hPa North 1.3 km/h 1.9 km/h 58 % 0 mm
09:44 19.8 °C 11 °C 1020.9 hPa WSW 2.1 km/h 3.7 km/h 57 % 0 mm
09:49 20.1 °C 11 °C 1020.9 hPa WSW 0.8 km/h 1.9 km/h 56 % 0 mm
09:54 20.7 °C 10.7 °C 1020.5 hPa Calm     53 % 0 mm
09:59 21.2 °C 10.9 °C 1020.5 hPa WSW 2.6 km/h 3.7 km/h 52 % 0 mm
10:04 21.8 °C 10.6 °C 1020.5 hPa WSW 1.9 km/h 3.7 km/h 49 % 0 mm
10:09 22.4 °C 10.2 °C 1020.5 hPa WSW 0.3 km/h 1.9 km/h 46 % 0 mm
10:14 22.7 °C 7.6 °C 1020.5 hPa WSW 6.4 km/h 8 km/h 38 % 0 mm
10:19 22.7 °C 8 °C 1020.5 hPa WSW 3.5 km/h 3.7 km/h 39 % 0 mm
10:24 22.7 °C 7.7 °C 1020.2 hPa WSW 4.3 km/h 6.4 km/h 38 % 0 mm
10:29 22.9 °C 7.8 °C 1020.2 hPa WSW 4.7 km/h 4.8 km/h 38 % 0 mm
10:34 22.9 °C 7.1 °C 1020.2 hPa WSW 5.6 km/h 7.4 km/h 36 % 0 mm
10:39 22.8 °C 7.4 °C 1020.2 hPa WSW 3.7 km/h 7.4 km/h 37 % 0 mm
10:44 23 °C 7.5 °C 1020.2 hPa WSW 2.6 km/h 6.4 km/h 37 % 0 mm
10:49 23.4 °C 7.4 °C 1020.2 hPa WSW 4.2 km/h 7.4 km/h 36 % 0 mm
10:54 23.7 °C 8.1 °C 1020.2 hPa WSW 3.4 km/h 5.6 km/h 37 % 0 mm
11:00 23.8 °C 7.8 °C 1020.2 hPa North 1 km/h 3.7 km/h 36 % 0 mm
11:05 24.2 °C 8.2 °C 1020.2 hPa WSW 2.4 km/h 5.6 km/h 36 % 0 mm
11:10 24.6 °C 8.6 °C 1019.9 hPa WSW 2.3 km/h 5.6 km/h 36 % 0 mm
11:15 24.5 °C 8.4 °C 1019.9 hPa WSW 1.8 km/h 4.8 km/h 36 % 0 mm
11:20 24.3 °C 8.2 °C 1019.9 hPa WSW 5.5 km/h 7.4 km/h 36 % 0 mm
11:25 24.2 °C 8.6 °C 1019.9 hPa WSW 2.7 km/h 5.6 km/h 37 % 0 mm
11:30 24.7 °C 8.6 °C 1019.9 hPa North 4.3 km/h 5.6 km/h 36 % 0 mm
11:35 25.1 °C 8.6 °C 1019.9 hPa WSW 2.6 km/h 5.6 km/h 35 % 0 mm
11:40 25.3 °C 8.3 °C 1019.9 hPa WSW 2.4 km/h 3.7 km/h 34 % 0 mm
11:45 24.9 °C 8.8 °C 1019.5 hPa WSW 1.8 km/h 5.6 km/h 36 % 0 mm
11:50 24.9 °C 9.2 °C 1019.5 hPa North 3.1 km/h 5.6 km/h 37 % 0 mm
11:55 25.2 °C 8.7 °C 1019.5 hPa WSW 3.2 km/h 5.6 km/h 35 % 0 mm
12:00 25.5 °C 9.3 °C 1019.5 hPa SSW 9.2 km/h 9.7 km/h 36 % 0 mm
12:05 24.9 °C 9.2 °C 1019.5 hPa SW 8 km/h 11.1 km/h 37 % 0 mm
12:10 24.8 °C 8.7 °C 1019.2 hPa WSW 10.9 km/h 13 km/h 36 % 0 mm
12:15 24.7 °C 8.7 °C 1019.2 hPa WSW 4.3 km/h 7.4 km/h 36 % 0 mm
12:20 24.7 °C 8.2 °C 1019.2 hPa North 1.9 km/h 3.7 km/h 35 % 0 mm
12:25 24.8 °C 8.3 °C 1019.2 hPa Calm     35 % 0 mm
12:30 25.4 °C 8.8 °C 1019.2 hPa WSW 4.7 km/h 5.6 km/h 35 % 0 mm
12:35 25.3 °C 8.7 °C 1019.2 hPa WSW 8.9 km/h 11.1 km/h 35 % 0 mm
12:40 25.2 °C 8.2 °C 1019.2 hPa WSW 3.9 km/h 5.6 km/h 34 % 0 mm
12:45 25.4 °C 8.8 °C 1018.8 hPa WSW 0.3 km/h 3.7 km/h 35 % 0 mm
12:50 25.4 °C 8.4 °C 1018.8 hPa WSW 10.3 km/h 14.8 km/h 34 % 0 mm
12:55 25.3 °C 8.7 °C 1018.8 hPa WSW 3.9 km/h 5.6 km/h 35 % 0 mm
13:00 25.5 °C 7.6 °C 1018.5 hPa WSW 5.5 km/h 7.4 km/h 32 % 0 mm
13:05 25.5 °C 7.6 °C 1018.5 hPa WSW 5.5 km/h 7.4 km/h 32 % 0 mm
13:10 25.4 °C 8 °C 1018.5 hPa WSW 10.6 km/h 10.6 km/h 33 % 0 mm
13:15 25.4 °C 7.9 °C 1018.5 hPa WSW 7.4 km/h 11.1 km/h 33 % 0 mm
13:20 25.6 °C 8.1 °C 1018.5 hPa North 1.6 km/h 3.2 km/h 33 % 0 mm
13:25 26.2 °C 8.2 °C 1018.5 hPa WSW 5.1 km/h 5.6 km/h 32 % 0 mm
13:30 26.2 °C 8.2 °C 1018.5 hPa WSW 3.7 km/h 5.6 km/h 32 % 0 mm
13:35 26.3 °C 8.7 °C 1018.2 hPa WSW 4 km/h 7.4 km/h 33 % 0 mm
13:40 26.2 °C 8.7 °C 1018.2 hPa WSW 3.7 km/h 7.4 km/h 33 % 0 mm
13:45 26.3 °C 8.3 °C 1018.2 hPa SW 5.6 km/h 9.3 km/h 32 % 0 mm
13:50 26.4 °C 8.4 °C 1018.2 hPa SW 3.1 km/h 3.7 km/h 32 % 0 mm
13:55 26.6 °C 8.6 °C 1018.2 hPa SW 0.2 km/h 1.9 km/h 32 % 0 mm
14:00 27 °C 7.9 °C 1018.2 hPa SW 1.9 km/h 3.7 km/h 30 % 0 mm
14:05 26.8 °C 7.7 °C 1018.2 hPa SW 3.7 km/h 9.3 km/h 30 % 0 mm
14:10 26.2 °C 7.3 °C 1018.2 hPa SW 2.4 km/h 9.3 km/h 30 % 0 mm
14:15 26.2 °C 7.2 °C 1017.8 hPa SW 4.7 km/h 5.6 km/h 30 % 0 mm
14:20 26.2 °C 7.2 °C 1017.8 hPa SW 3.5 km/h 5.6 km/h 30 % 0 mm
14:25 26.3 °C 7.8 °C 1017.8 hPa SW 2.9 km/h 3.7 km/h 31 % 0 mm
14:30 26.3 °C 7.3 °C 1017.8 hPa SSW 9.7 km/h 13 km/h 30 % 0 mm
14:35 26 °C 7.1 °C 1017.8 hPa SSW 2.7 km/h 5.6 km/h 30 % 0 mm
14:40 26.1 °C 7.1 °C 1018.2 hPa SSW 7.6 km/h 11.1 km/h 30 % 0 mm
14:45 26 °C 7.6 °C 1018.2 hPa Calm   3.7 km/h 31 % 0 mm
14:50 26.1 °C 7.7 °C 1018.2 hPa SSW 5.5 km/h 14.8 km/h 31 % 0 mm
14:55 26.1 °C 7.6 °C 1018.2 hPa SSW 5.1 km/h 13 km/h 31 % 0 mm
15:00 26.1 °C 7.2 °C 1018.2 hPa SSW 3.2 km/h 5.6 km/h 30 % 0 mm
15:05 26.3 °C 7.4 °C 1018.2 hPa South 4.3 km/h 13 km/h 30 % 0 mm
15:10 26.4 °C 7.4 °C 1017.8 hPa South 10.3 km/h 14.8 km/h 30 % 0 mm
15:15 26.5 °C 7 °C 1017.8 hPa South 4.8 km/h 11.3 km/h 29 % 0 mm
15:20 26.3 °C 7.3 °C 1017.8 hPa South 10 km/h 13 km/h 30 % 0 mm
15:25 26 °C 7.1 °C 1017.8 hPa South 1.3 km/h 7.4 km/h 30 % 0 mm
15:30 26.2 °C 7.2 °C 1018.2 hPa South 9.2 km/h 13 km/h 30 % 0 mm
15:35 26.2 °C 7.2 °C 1017.8 hPa South 2.3 km/h 6.4 km/h 30 % 0 mm
15:40 26.1 °C 7.2 °C 1017.8 hPa South 5.8 km/h 9.3 km/h 30 % 0 mm
15:45 26.1 °C 7.6 °C 1017.8 hPa South 7.1 km/h 7.4 km/h 31 % 0 mm
15:50 26.2 °C 7.2 °C 1017.8 hPa Calm   1.9 km/h 30 % 0 mm
15:55 26.3 °C 7.3 °C 1017.8 hPa South 2.4 km/h 7.4 km/h 30 % 0 mm
16:00 26.3 °C 7.3 °C 1017.8 hPa South 3.1 km/h 5.6 km/h 30 % 0 mm
16:05 26.1 °C 7.2 °C 1017.8 hPa South 6.1 km/h 9.3 km/h 30 % 0 mm
16:10 26.1 °C 7.2 °C 1017.8 hPa South 4.8 km/h 5.6 km/h 30 % 0 mm
16:15 26.1 °C 7.1 °C 1017.8 hPa South 5 km/h 9.3 km/h 30 % 0 mm
16:20 26.1 °C 6.6 °C 1017.8 hPa South 7.6 km/h 9.3 km/h 29 % 0 mm
16:25 25.9 °C 6.6 °C 1018.2 hPa South 6.4 km/h 7.4 km/h 29 % 0 mm
16:30 25.8 °C 6.9 °C 1018.2 hPa South 1.4 km/h 7.4 km/h 30 % 0 mm
16:35 25.8 °C 6.9 °C 1018.2 hPa South 7.6 km/h 8 km/h 30 % 0 mm
16:40 25.7 °C 6.8 °C 1018.2 hPa South 6.4 km/h 13 km/h 30 % 0 mm
16:45 25.6 °C 7.2 °C 1018.2 hPa South 6.1 km/h 7.4 km/h 31 % 0 mm
16:50 25.5 °C 7.6 °C 1018.2 hPa South 3.7 km/h 5.6 km/h 32 % 0 mm
16:55 25.5 °C 7.6 °C 1018.2 hPa South 2.1 km/h 5.6 km/h 32 % 0 mm
17:00 25.4 °C 7.5 °C 1018.2 hPa South 1.8 km/h 5.6 km/h 32 % 0 mm
17:05 25.3 °C 7.4 °C 1018.2 hPa South 4.8 km/h 5.6 km/h 32 % 0 mm
17:10 25.1 °C 7.7 °C 1018.2 hPa South 1.6 km/h 5.6 km/h 33 % 0 mm
17:15 24.8 °C 7.4 °C 1018.2 hPa South 2.7 km/h 5.6 km/h 33 % 0 mm
17:20 24.5 °C 7.6 °C 1018.2 hPa South 2.3 km/h 5.6 km/h 34 % 0 mm
17:25 24.3 °C 7.4 °C 1018.2 hPa South 0.3 km/h 3.2 km/h 34 % 0 mm
17:30 24 °C 7.6 °C 1018.2 hPa South 0.8 km/h 1.9 km/h 35 % 0 mm
17:36 23.7 °C 7.8 °C 1018.2 hPa South 0.2 km/h 3.7 km/h 36 % 0 mm
17:40 23.3 °C 7.8 °C 1018.2 hPa SSE 10 km/h 14.8 km/h 37 % 0 mm
17:46 22.8 °C 8.1 °C 1018.5 hPa SSE 6.8 km/h 7.4 km/h 39 % 0 mm
17:51 22.4 °C 8.5 °C 1018.5 hPa SSE 0.5 km/h 5.6 km/h 41 % 0 mm
17:56 22.1 °C 8.2 °C 1018.5 hPa SSE 6 km/h 9.7 km/h 41 % 0 mm
18:01 21.7 °C 8.2 °C 1018.5 hPa SSE 0.6 km/h 5.6 km/h 42 % 0 mm
18:06 21.5 °C 8.4 °C 1018.5 hPa SSE 2.1 km/h 9.7 km/h 43 % 0 mm
18:11 21.2 °C 8.1 °C 1018.5 hPa SSE 0.6 km/h 7.4 km/h 43 % 0 mm
18:16 20.9 °C 8.2 °C 1018.5 hPa SSE 1.6 km/h 3.7 km/h 44 % 0 mm
18:21 20.6 °C 8.3 °C 1018.5 hPa SSE 0.2 km/h 1.9 km/h 45 % 0 mm
18:26 20.3 °C 8.3 °C 1018.8 hPa SSE 2.4 km/h 5.6 km/h 46 % 0 mm
18:31 20.1 °C 8.1 °C 1018.8 hPa SSE 3.1 km/h 7.4 km/h 46 % 0 mm
18:36 19.9 °C 8.2 °C 1018.8 hPa SSE 0.2 km/h 1.9 km/h 47 % 0 mm
18:37 19.8 °C 8.2 °C 1018.8 hPa SSE 1 km/h 3.7 km/h 47 % 0 mm
18:42 19.6 °C 8 °C 1018.8 hPa SSE 0.3 km/h 1.9 km/h 47 % 0 mm
18:47 19.4 °C 8.1 °C 1018.8 hPa SSE 5.5 km/h 7.4 km/h 48 % 0 mm
18:52 19.2 °C 7.9 °C 1018.8 hPa SSE 1 km/h 6.4 km/h 48 % 0 mm
18:57 19.1 °C 7.8 °C 1018.8 hPa SSE 4.5 km/h 7.4 km/h 48 % 0 mm
19:02 19.1 °C 8.2 °C 1018.8 hPa SSE 2.7 km/h 5.6 km/h 49 % 0 mm
19:07 19 °C 7.7 °C 1018.8 hPa SSE 0.2 km/h 1.9 km/h 48 % 0 mm
19:12 18.8 °C 7.9 °C 1018.8 hPa SSE 0.6 km/h 3.7 km/h 49 % 0 mm
19:17 18.6 °C 8 °C 1019.2 hPa SSE 2.6 km/h 5.6 km/h 50 % 0 mm
19:22 18.4 °C 7.8 °C 1019.2 hPa SSE 2.3 km/h 3.7 km/h 50 % 0 mm
19:27 18.3 °C 7.7 °C 1019.2 hPa SSE 1.6 km/h 9.3 km/h 50 % 0 mm
19:32 18.2 °C 7.6 °C 1019.2 hPa SSE 2.7 km/h 6.4 km/h 50 % 0 mm
19:37 18.1 °C 7.5 °C 1019.2 hPa SSE 1.6 km/h 5.6 km/h 50 % 0 mm
19:42 18 °C 7.7 °C 1019.2 hPa SSE 2.4 km/h 5.6 km/h 51 % 0 mm
19:47 17.9 °C 7.7 °C 1019.2 hPa SSE 6.1 km/h 9.3 km/h 51 % 0 mm
19:52 17.9 °C 7.7 °C 1019.2 hPa SSE 8.7 km/h 8.7 km/h 51 % 0 mm
19:58 17.9 °C 7.6 °C 1019.2 hPa SSE 5.1 km/h 7.4 km/h 51 % 0 mm
20:03 17.9 °C 7.9 °C 1019.2 hPa SSE 1.9 km/h 11.1 km/h 52 % 0 mm
20:08 17.8 °C 7.8 °C 1019.2 hPa SSE 1.9 km/h 9.3 km/h 52 % 0 mm
20:13 17.7 °C 7.7 °C 1019.2 hPa SSE 4.5 km/h 8 km/h 52 % 0 mm
20:18 17.7 °C 7.7 °C 1019.2 hPa SSE 1.1 km/h 3.7 km/h 52 % 0 mm
20:23 17.6 °C 7.6 °C 1019.5 hPa SSE 5.1 km/h 6.4 km/h 52 % 0 mm
20:28 17.4 °C 7.5 °C 1019.5 hPa SSE 0.5 km/h 3.7 km/h 52 % 0 mm
20:33 17.3 °C 7.6 °C 1019.5 hPa Calm   1.9 km/h 53 % 0 mm
20:38 17 °C 7.3 °C 1019.5 hPa SSE 0.6 km/h   53 % 0 mm
20:43 16.8 °C 7.4 °C 1019.5 hPa SSE 1.6 km/h 6.4 km/h 54 % 0 mm
20:48 16.8 °C 7.7 °C 1019.5 hPa SSE 3.4 km/h 6.4 km/h 55 % 0 mm
20:53 16.8 °C 7.7 °C 1019.5 hPa SSE 0.5 km/h 3.7 km/h 55 % 0 mm
20:58 16.7 °C 7.6 °C 1019.5 hPa SSE 2.1 km/h 3.7 km/h 55 % 0 mm
21:03 16.7 °C 7.8 °C 1019.5 hPa Calm     56 % 0 mm
21:08 16.6 °C 8 °C 1019.5 hPa SSE 0.3 km/h 1.9 km/h 57 % 0 mm
21:13 16.4 °C 8.2 °C 1019.9 hPa SSE 1.6 km/h 3.7 km/h 58 % 0 mm
21:18 16.3 °C 8 °C 1019.9 hPa SSE 2.3 km/h 3.7 km/h 58 % 0 mm
21:23 16.2 °C 8.2 °C 1019.9 hPa SSE 2.4 km/h 5.6 km/h 59 % 0 mm
21:28 15.9 °C 8.2 °C 1019.9 hPa SSE 1.4 km/h 3.7 km/h 60 % 0 mm
21:33 15.7 °C 8.2 °C 1019.9 hPa SSE 0.5 km/h 3.7 km/h 61 % 0 mm
21:37 15.4 °C 8.2 °C 1019.9 hPa SSE 6.6 km/h 7.4 km/h 62 % 0 mm
21:42 15.3 °C 8.3 °C 1019.9 hPa SSE 5.5 km/h 7.4 km/h 63 % 0 mm
21:47 15.3 °C 8.3 °C 1019.9 hPa SSE 4 km/h 6.4 km/h 63 % 0 mm
21:52 15.3 °C 8.5 °C 1019.9 hPa SSE 2.7 km/h 5.6 km/h 64 % 0 mm
21:57 15.2 °C 8.4 °C 1019.9 hPa SSE 0.5 km/h 1.9 km/h 64 % 0 mm
22:02 15.1 °C 8.3 °C 1019.9 hPa Calm     64 % 0 mm
22:07 14.9 °C 8.4 °C 1019.9 hPa SSE 2.4 km/h 3.7 km/h 65 % 0 mm
22:12 14.7 °C 8.4 °C 1019.9 hPa SSE 1.6 km/h 3.7 km/h 66 % 0 mm
22:17 14.6 °C 8.3 °C 1019.9 hPa Calm     66 % 0 mm
22:22 14.5 °C 8.2 °C 1019.9 hPa Calm     66 % 0 mm
22:27 14.3 °C 8.1 °C 1019.9 hPa SSE 1.6 km/h 1.9 km/h 66 % 0 mm
22:32 14.2 °C 8.2 °C 1019.9 hPa SSE 0.5 km/h 1.9 km/h 67 % 0 mm
22:37 14.1 °C 8.1 °C 1019.9 hPa Calm     67 % 0 mm
22:42 13.9 °C 7.9 °C 1019.9 hPa Calm     67 % 0 mm
22:47 13.7 °C 7.7 °C 1019.9 hPa Calm     67 % 0 mm
22:52 13.4 °C 7.7 °C 1019.9 hPa Calm     68 % 0 mm
22:57 13.2 °C 7.8 °C 1019.9 hPa Calm     70 % 0 mm
23:02 12.9 °C 7.6 °C 1019.9 hPa Calm     70 % 0 mm
23:07 12.6 °C 7.5 °C 1019.9 hPa Calm     71 % 0 mm
23:12 12.4 °C 7.3 °C 1019.9 hPa Calm     71 % 0 mm
23:17 12.2 °C 7.3 °C 1019.5 hPa Calm     72 % 0 mm
23:22 12.1 °C 7.2 °C 1019.5 hPa Calm     72 % 0 mm
23:27 11.9 °C 7.3 °C 1019.9 hPa Calm     73 % 0 mm
23:32 11.7 °C 7.2 °C 1019.5 hPa Calm     74 % 0 mm
23:37 11.6 °C 7.3 °C 1019.5 hPa Calm     75 % 0 mm
23:42 11.4 °C 7.1 °C 1019.5 hPa Calm     75 % 0 mm
23:47 11.2 °C 7.2 °C 1019.5 hPa Calm     76 % 0 mm
23:52 11 °C 6.9 °C 1019.5 hPa Calm     76 % 0 mm
Ararat Weather
Compliments of Weather Underground - 2.25 mb
Click here to send mail.


ABOUT

Live weather data from Ararat, Victoria, Australia, 3377
Data uploaded from Cumulus every 5 minutes to Weather Underground.
This site then downloads the raw data for formatting and display.
Metric and imperial data can be displayed. Graphs and historical data available.
Includes Sun and Moon times and rain image live from BOM.

Check out Ararat Weather on Facebook, Twitter and Google +

Help support ongoing costs by checking out the ads





Follow @AraratWeather